Time;durP1;ratioP1;P1;durP2;ratioP2;P2;SDS_P1;SDS_P2;PMS_P1;PMS_P2;Temp;Humidity;BMP_temperature;BMP_pressure;BME280_temperature;BME280_humidity;BME280_pressure;Samples;Min_cycle;Max_cycle;Signal;HPM_P1;HPM_P2
2023/06/19 00:00:43;;;;;;;4.97;4.68;;;;;;;18.64;81.22;95115.16;4995586;28;20276;-68
2023/06/19 00:03:10;;;;;;;5.40;4.88;;;;;;;18.60;81.38;95108.53;4997337;28;20584;-68
2023/06/19 00:05:36;;;;;;;6.63;4.93;;;;;;;18.64;80.18;95111.75;4997268;28;20302;-67
2023/06/19 00:08:06;;;;;;;5.50;4.95;;;;;;;18.74;79.03;95115.38;4996263;28;20285;-67
2023/06/19 00:10:33;;;;;;;5.18;4.82;;;;;;;18.57;80.51;95110.44;4995978;28;20244;-67
2023/06/19 00:13:01;;;;;;;5.82;5.13;;;;;;;18.40;82.62;95110.72;4997154;28;20311;-67
2023/06/19 00:15:29;;;;;;;5.88;4.97;;;;;;;18.32;82.99;95112.00;4996798;28;20218;-67
2023/06/19 00:17:56;;;;;;;5.32;4.88;;;;;;;18.23;83.80;95099.75;4997042;28;20214;-65
2023/06/19 00:20:23;;;;;;;5.25;4.72;;;;;;;18.24;82.78;95103.97;4996090;28;20258;-67
2023/06/19 00:22:51;;;;;;;6.28;4.88;;;;;;;18.22;83.17;95097.25;4995382;28;20648;-67
2023/06/19 00:25:18;;;;;;;5.25;4.78;;;;;;;18.30;82.68;95101.03;4997475;28;20201;-66
2023/06/19 00:27:45;;;;;;;5.43;4.93;;;;;;;18.35;81.69;95104.09;4996387;28;20300;-67
2023/06/19 00:30:13;;;;;;;4.80;4.40;;;;;;;18.43;81.16;95098.47;4994352;28;20223;-68
2023/06/19 00:32:46;;;;;;;6.15;5.53;;;;;;;18.50;80.61;95101.50;4995868;28;20207;-67
2023/06/19 00:35:14;;;;;;;6.00;4.82;;;;;;;18.54;80.57;95097.81;4996713;28;20234;-68
2023/06/19 00:37:44;;;;;;;4.93;4.53;;;;;;;18.58;79.99;95092.34;4994855;28;20570;-66
2023/06/19 00:40:17;;;;;;;4.68;4.38;;;;;;;18.60;80.57;95084.56;4996360;28;20877;-67
2023/06/19 00:42:44;;;;;;;4.60;4.20;;;;;;;18.51;80.27;95090.28;4996266;28;20207;-66
2023/06/19 00:45:11;;;;;;;4.55;4.25;;;;;;;18.52;80.70;95094.50;4994880;28;20211;-67
2023/06/19 00:47:39;;;;;;;8.35;4.78;;;;;;;18.43;81.16;95084.78;4996623;28;20223;-66
2023/06/19 00:50:07;;;;;;;5.03;4.72;;;;;;;18.36;80.90;95092.06;4994470;28;20234;-67
2023/06/19 00:52:34;;;;;;;5.38;4.85;;;;;;;18.47;80.62;95088.81;4995497;28;20223;-67
2023/06/19 00:55:02;;;;;;;4.85;4.55;;;;;;;18.50;80.28;95078.34;4995443;28;20297;-67
2023/06/19 00:57:29;;;;;;;4.88;4.57;;;;;;;18.47;80.73;95075.94;4996217;28;20199;-67
2023/06/19 00:59:56;;;;;;;5.95;4.80;;;;;;;18.38;80.89;95071.38;4995164;28;20203;-67
2023/06/19 01:02:23;;;;;;;5.07;4.68;;;;;;;18.26;81.14;95066.13;4993567;28;20219;-66
2023/06/19 01:04:52;;;;;;;5.00;4.68;;;;;;;18.22;81.00;95069.78;4996791;28;20289;-69
2023/06/19 01:07:28;;;;;;;6.20;5.00;;;;;;;18.23;81.07;95056.00;4995592;28;20211;-68
2023/06/19 01:10:00;;;;;;;5.28;4.72;;;;;;;18.12;82.13;95065.31;4995103;28;20258;-67
2023/06/19 01:12:37;;;;;;;5.13;4.68;;;;;;;18.10;82.07;95070.56;4994824;28;20203;-67
2023/06/19 01:15:06;;;;;;;4.72;4.32;;;;;;;17.81;84.40;95058.72;4995829;28;20249;-66
2023/06/19 01:17:33;;;;;;;4.75;4.43;;;;;;;17.60;85.27;95056.47;4995906;28;20195;-67
2023/06/19 01:20:06;;;;;;;5.00;4.60;;;;;;;17.55;85.42;95063.69;4994789;28;20703;-67
2023/06/19 01:22:34;;;;;;;5.63;5.13;;;;;;;17.42;86.24;95062.75;4994981;28;20207;-68
2023/06/19 01:25:01;;;;;;;5.85;5.50;;;;;;;17.52;84.09;95060.47;4995695;28;20231;-67
2023/06/19 01:27:31;;;;;;;5.00;4.70;;;;;;;17.60;84.54;95059.06;4995667;28;20332;-67
2023/06/19 01:29:58;;;;;;;4.95;4.38;;;;;;;17.63;83.93;95056.31;4994865;28;20242;-68
2023/06/19 01:32:32;;;;;;;5.65;4.70;;;;;;;17.66;83.51;95066.44;4994109;28;20662;-67
2023/06/19 01:35:01;;;;;;;5.20;4.65;;;;;;;17.45;85.32;95067.72;4994872;28;21853;-70
2023/06/19 01:37:33;;;;;;;4.68;4.15;;;;;;;17.35;86.02;95071.72;4994990;28;20774;-71
2023/06/19 01:40:09;;;;;;;4.93;4.63;;;;;;;17.23;86.92;95077.63;4993205;28;20230;-68
2023/06/19 01:42:38;;;;;;;4.60;4.30;;;;;;;17.21;87.31;95079.44;4993382;28;21873;-68
2023/06/19 01:45:06;;;;;;;5.05;4.57;;;;;;;17.15;87.61;95084.94;4994457;28;20755;-68
2023/06/19 01:47:33;;;;;;;5.40;4.90;;;;;;;17.08;88.34;95083.63;4995010;28;20531;-68
2023/06/19 01:50:00;;;;;;;4.38;4.15;;;;;;;16.97;89.30;95077.41;4994216;28;20321;-68
2023/06/19 01:52:27;;;;;;;5.72;5.18;;;;;;;16.90;89.77;95085.53;4993617;28;20226;-68
2023/06/19 01:54:54;;;;;;;5.07;4.65;;;;;;;16.88;90.08;95080.50;4994376;28;21228;-69
2023/06/19 01:57:22;;;;;;;5.95;4.82;;;;;;;16.82;90.32;95078.31;4994912;28;20284;-67
2023/06/19 01:59:48;;;;;;;5.53;4.90;;;;;;;16.82;90.38;95085.19;4995180;28;20203;-67
2023/06/19 02:02:15;;;;;;;5.78;5.20;;;;;;;16.81;90.55;95086.91;4994059;28;20292;-68
2023/06/19 02:04:42;;;;;;;7.82;4.78;;;;;;;16.63;91.18;95068.25;4993800;28;20268;-67
2023/06/19 02:07:09;;;;;;;5.30;4.22;;;;;;;16.74;91.20;95083.03;4994436;28;20807;-68
2023/06/19 02:09:35;;;;;;;5.00;4.70;;;;;;;16.69;91.41;95087.59;4994527;28;20214;-67
2023/06/19 02:12:02;;;;;;;4.95;4.47;;;;;;;16.68;91.50;95085.94;4993701;28;20198;-68
2023/06/19 02:14:30;;;;;;;8.75;5.30;;;;;;;16.47;92.01;95053.78;4994399;28;20309;-67
2023/06/19 02:16:57;;;;;;;5.20;4.90;;;;;;;16.63;92.18;95088.78;4995642;28;20199;-68
2023/06/19 02:19:23;;;;;;;4.85;4.55;;;;;;;16.57;92.74;95093.41;4993739;28;20282;-68
2023/06/19 02:21:50;;;;;;;6.55;4.38;;;;;;;16.65;92.46;95097.22;4994200;28;20245;-67
2023/06/19 02:24:17;;;;;;;5.65;5.25;;;;;;;16.59;93.24;95100.09;4993124;28;20293;-67
2023/06/19 02:26:44;;;;;;;6.57;4.63;;;;;;;16.53;93.15;95091.94;4995232;28;20626;-67
2023/06/19 02:29:11;;;;;;;5.22;4.72;;;;;;;16.58;93.25;95095.06;4992805;28;20245;-66
2023/06/19 02:31:39;;;;;;;5.45;5.05;;;;;;;16.54;92.78;95101.28;4994384;28;20785;-68
2023/06/19 02:34:06;;;;;;;5.78;5.38;;;;;;;16.58;92.25;95095.06;4994086;28;20298;-67
2023/06/19 02:36:33;;;;;;;6.10;5.22;;;;;;;16.65;92.88;95104.91;4994216;28;20310;-67
2023/06/19 02:39:00;;;;;;;5.45;5.05;;;;;;;16.56;93.49;95102.03;4993644;28;20316;-66
2023/06/19 02:41:26;;;;;;;5.40;5.10;;;;;;;16.48;94.02;95105.00;4993678;28;20286;-68
2023/06/19 02:43:53;;;;;;;5.85;5.32;;;;;;;16.42;94.29;95101.94;4993685;28;20288;-67
2023/06/19 02:46:20;;;;;;;5.95;5.30;;;;;;;16.40;94.24;95103.78;4994536;28;20364;-69
2023/06/19 02:48:48;;;;;;;7.70;5.53;;;;;;;16.39;94.79;95110.63;4995031;28;20304;-68
2023/06/19 02:51:14;;;;;;;7.40;5.43;;;;;;;16.34;94.88;95097.25;4997924;28;20601;-69
2023/06/19 02:53:41;;;;;;;6.03;5.53;;;;;;;16.40;94.46;95099.47;4997738;28;20633;-69
2023/06/19 02:56:08;;;;;;;8.82;5.43;;;;;;;16.49;93.97;95104.09;4997572;28;20284;-68
2023/06/19 02:58:37;;;;;;;5.88;5.32;;;;;;;16.39;94.09;95105.50;4998503;28;20207;-68
2023/06/19 03:01:06;;;;;;;5.82;5.15;;;;;;;16.39;93.79;95104.69;4998761;28;20234;-69
2023/06/19 03:03:37;;;;;;;5.57;5.10;;;;;;;16.45;93.56;95114.59;4998133;28;20687;-68
2023/06/19 03:06:06;;;;;;;8.00;5.57;;;;;;;16.49;93.52;95113.53;4998400;28;20253;-69
2023/06/19 03:08:34;;;;;;;10.20;6.07;;;;;;;16.57;93.09;95119.06;4998096;28;20207;-69
2023/06/19 03:11:04;;;;;;;5.90;5.38;;;;;;;16.58;93.02;95107.91;4998557;28;21247;-69
2023/06/19 03:13:30;;;;;;;6.88;6.20;;;;;;;16.54;93.05;95109.81;4998703;28;20252;-69
2023/06/19 03:15:57;;;;;;;5.90;5.50;;;;;;;16.58;92.94;95113.81;4996462;28;20329;-69
2023/06/19 03:18:24;;;;;;;7.00;5.30;;;;;;;16.60;92.95;95113.75;4997685;28;20245;-69
2023/06/19 03:20:50;;;;;;;5.95;5.30;;;;;;;16.69;92.52;95107.31;4996980;28;20289;-68
2023/06/19 03:23:19;;;;;;;8.10;5.28;;;;;;;16.71;92.47;95105.47;5000315;28;20206;-68
2023/06/19 03:25:45;;;;;;;6.30;5.68;;;;;;;16.78;92.55;95109.34;4997605;28;20491;-68
2023/06/19 03:28:12;;;;;;;6.22;5.53;;;;;;;16.79;92.39;95111.84;4998149;28;20309;-68
2023/06/19 03:30:39;;;;;;;6.10;5.60;;;;;;;16.94;92.22;95108.38;4995453;28;20313;-67
2023/06/19 03:33:05;;;;;;;6.65;5.72;;;;;;;17.53;90.93;95109.19;4998162;28;20220;-68
2023/06/19 03:35:32;;;;;;;7.43;5.97;;;;;;;18.82;86.19;95115.69;4997119;28;20648;-70
2023/06/19 03:37:59;;;;;;;4.40;4.10;;;;;;;20.60;78.17;95123.28;4998440;28;20636;-69
2023/06/19 03:40:27;;;;;;;4.90;4.50;;;;;;;22.36;69.98;95119.47;4998816;28;20203;-70
2023/06/19 03:42:54;;;;;;;10.43;4.38;;;;;;;23.85;64.08;95108.97;4997510;28;20237;-68
2023/06/19 03:45:21;;;;;;;5.22;4.72;;;;;;;24.98;59.92;95100.75;4996912;28;20206;-70
2023/06/19 03:47:47;;;;;;;7.00;3.65;;;;;;;25.93;56.64;95108.50;4999282;28;20323;-69
2023/06/19 03:50:14;;;;;;;4.60;4.20;;;;;;;26.54;53.61;95102.69;4997275;28;20673;-69
2023/06/19 03:52:41;;;;;;;4.72;4.43;;;;;;;26.46;53.19;95109.63;4996849;28;20322;-69
2023/06/19 03:55:08;;;;;;;5.15;4.38;;;;;;;25.80;55.20;95101.97;4997003;28;20208;-70
2023/06/19 03:57:36;;;;;;;4.60;4.40;;;;;;;24.81;57.96;95106.59;4998185;28;20299;-68
2023/06/19 04:00:07;;;;;;;4.85;4.45;;;;;;;23.94;61.20;95114.22;4997882;28;20207;-70
2023/06/19 04:02:34;;;;;;;5.93;4.78;;;;;;;23.32;62.91;95104.72;4998279;28;20244;-70
2023/06/19 04:05:00;;;;;;;5.50;5.10;;;;;;;22.93;64.29;95106.22;4997722;28;20203;-70
2023/06/19 04:07:27;;;;;;;4.85;4.55;;;;;;;22.73;63.25;95096.63;4997771;28;20203;-69
2023/06/19 04:09:54;;;;;;;11.43;5.18;;;;;;;22.39;64.80;95101.91;4997685;28;20711;-69
2023/06/19 04:12:21;;;;;;;5.50;5.18;;;;;;;22.20;65.52;95101.75;4998425;28;20910;-68
2023/06/19 04:14:49;;;;;;;11.82;10.63;;;;;;;22.07;66.46;95101.03;4998046;28;20268;-70
2023/06/19 04:17:16;;;;;;;17.40;13.25;;;;;;;21.99;66.39;95098.22;4995885;28;20637;-69
2023/06/19 04:19:42;;;;;;;8.95;7.32;;;;;;;21.95;65.42;95104.56;4996054;28;20688;-70
2023/06/19 04:22:10;;;;;;;6.70;5.45;;;;;;;22.05;64.55;95097.75;4996333;28;20658;-68
2023/06/19 04:24:36;;;;;;;5.28;4.85;;;;;;;22.13;64.07;95094.56;4996636;28;20226;-69
2023/06/19 04:27:04;;;;;;;4.65;4.35;;;;;;;22.19;63.78;95094.91;4994805;28;20288;-68
2023/06/19 04:29:31;;;;;;;7.03;5.05;;;;;;;22.31;63.40;95098.28;4995437;28;20261;-70
2023/06/19 04:31:59;;;;;;;7.78;4.72;;;;;;;22.52;62.83;95091.41;4997274;28;20226;-71
2023/06/19 04:34:26;;;;;;;18.33;13.23;;;;;;;22.91;61.31;95096.94;4996809;28;21079;-70
2023/06/19 04:36:53;;;;;;;16.02;14.15;;;;;;;23.21;60.34;95078.03;4995919;28;20235;-72
2023/06/19 04:39:19;;;;;;;9.73;7.43;;;;;;;23.78;59.29;95098.28;4996369;28;20207;-72
2023/06/19 04:41:47;;;;;;;7.60;6.90;;;;;;;24.10;58.42;95098.13;4996821;28;20212;-70
2023/06/19 04:44:14;;;;;;;5.57;5.05;;;;;;;24.33;57.91;95093.56;4997057;28;20667;-73
2023/06/19 04:46:41;;;;;;;8.27;7.57;;;;;;;24.51;57.23;95097.13;4997104;28;20368;-69
2023/06/19 04:49:10;;;;;;;13.68;10.32;;;;;;;24.70;56.72;95098.94;4997653;28;20967;-72
2023/06/19 04:51:37;;;;;;;6.28;5.45;;;;;;;24.68;56.00;95090.47;5000150;28;20237;-72
2023/06/19 04:54:04;;;;;;;6.60;4.85;;;;;;;24.55;55.87;95097.69;4996291;28;21754;-72
2023/06/19 04:56:30;;;;;;;7.55;4.95;;;;;;;24.44;55.77;95093.44;4996037;28;20218;-69
2023/06/19 04:58:59;;;;;;;5.30;4.90;;;;;;;24.27;55.54;95099.28;4996050;28;20210;-71
2023/06/19 05:01:28;;;;;;;5.53;5.05;;;;;;;24.17;56.22;95095.81;4997452;28;20211;-72
2023/06/19 05:03:56;;;;;;;6.10;4.70;;;;;;;24.25;56.29;95096.81;4997354;28;20214;-70
2023/06/19 05:06:24;;;;;;;5.20;4.75;;;;;;;24.37;55.35;95100.94;4995318;28;20280;-71
2023/06/19 05:08:50;;;;;;;4.32;3.92;;;;;;;24.85;54.34;95094.97;4996234;28;20759;-71
2023/06/19 05:11:18;;;;;;;4.30;3.70;;;;;;;25.37;53.71;95091.09;4995582;28;20321;-69
2023/06/19 05:13:44;;;;;;;3.95;3.55;;;;;;;25.45;52.27;95097.41;4996326;28;20408;-72
2023/06/19 05:16:15;;;;;;;4.65;4.20;;;;;;;25.18;52.90;95087.72;4996107;28;20212;-72
2023/06/19 05:18:42;;;;;;;4.07;3.88;;;;;;;25.15;53.35;95095.81;4993956;28;20213;-71
2023/06/19 05:21:09;;;;;;;6.80;4.40;;;;;;;25.04;54.27;95100.19;4995800;28;20207;-69
2023/06/19 05:23:38;;;;;;;4.38;4.05;;;;;;;24.83;54.33;95099.47;4995281;28;20693;-70
2023/06/19 05:26:04;;;;;;;3.92;3.72;;;;;;;24.52;54.12;95109.16;4996527;28;21121;-67
2023/06/19 05:28:31;;;;;;;3.97;3.78;;;;;;;24.15;54.71;95116.72;4994246;28;20334;-68
2023/06/19 05:30:58;;;;;;;3.78;3.58;;;;;;;23.88;55.69;95113.91;4995100;28;20326;-67
2023/06/19 05:33:25;;;;;;;5.43;4.30;;;;;;;23.60;57.22;95111.03;4994977;28;20226;-68
2023/06/19 05:35:53;;;;;;;5.85;3.88;;;;;;;23.54;57.14;95124.53;4995200;28;21108;-68
2023/06/19 05:38:20;;;;;;;4.35;4.00;;;;;;;23.48;58.00;95125.03;4995527;28;20261;-69
2023/06/19 05:40:48;;;;;;;6.40;3.97;;;;;;;23.68;57.18;95128.56;4996644;28;20714;-66
2023/06/19 05:43:15;;;;;;;4.22;3.67;;;;;;;24.15;55.90;95132.31;4996131;28;20715;-69
2023/06/19 05:45:41;;;;;;;4.15;3.95;;;;;;;24.70;54.53;95122.34;4994847;28;20210;-69
2023/06/19 05:48:08;;;;;;;6.85;3.75;;;;;;;25.48;53.25;95121.34;4995113;28;20328;-69
2023/06/19 05:50:35;;;;;;;4.43;4.13;;;;;;;26.95;48.91;95116.16;4994207;28;20207;-70
2023/06/19 05:53:01;;;;;;;4.88;3.80;;;;;;;28.49;45.67;95121.50;4996378;28;20676;-70
2023/06/19 05:55:28;;;;;;;6.25;3.58;;;;;;;29.72;42.71;95119.66;4993897;28;20290;-70
2023/06/19 05:57:56;;;;;;;3.47;3.28;;;;;;;30.58;41.50;95118.09;4993787;28;21600;-70
2023/06/19 06:00:23;;;;;;;4.22;3.85;;;;;;;31.28;39.48;95123.22;4993045;28;20243;-68
2023/06/19 06:02:51;;;;;;;4.63;3.47;;;;;;;31.05;39.82;95113.50;4995806;28;20282;-69
2023/06/19 06:05:18;;;;;;;3.47;3.30;;;;;;;30.75;40.30;95127.47;4996068;28;20294;-66
2023/06/19 06:07:45;;;;;;;3.20;3.10;;;;;;;30.33;40.77;95120.78;4994249;28;20283;-70
2023/06/19 06:10:12;;;;;;;3.60;3.40;;;;;;;30.54;40.95;95129.88;4994615;28;20317;-68
2023/06/19 06:12:39;;;;;;;3.53;3.20;;;;;;;31.26;38.78;95104.19;4994783;28;21180;-68
2023/06/19 06:15:08;;;;;;;6.28;3.58;;;;;;;32.17;36.42;95127.63;4995667;28;20226;-70
2023/06/19 06:17:34;;;;;;;4.07;3.70;;;;;;;33.71;34.59;95130.66;4994227;28;20218;-68
2023/06/19 06:20:01;;;;;;;3.47;3.28;;;;;;;36.21;30.62;95129.72;4994797;28;20280;-70
2023/06/19 06:22:28;;;;;;;3.47;3.08;;;;;;;38.62;26.86;95114.38;4993641;28;20206;-69
2023/06/19 06:24:55;;;;;;;4.45;3.00;;;;;;;40.93;24.24;95129.16;4996392;28;20211;-69
2023/06/19 06:27:21;;;;;;;5.43;3.88;;;;;;;42.73;22.19;95125.28;4994652;28;20265;-69
2023/06/19 06:29:48;;;;;;;4.15;3.90;;;;;;;44.06;20.66;95114.72;4994048;28;20286;-69
2023/06/19 06:32:16;;;;;;;5.20;3.95;;;;;;;45.05;19.83;95116.50;4994665;28;20248;-69
2023/06/19 06:34:43;;;;;;;4.00;3.80;;;;;;;45.47;19.26;95112.81;4993985;28;20268;-70
2023/06/19 06:37:09;;;;;;;4.63;3.70;;;;;;;46.26;18.44;95110.34;4994887;28;20214;-70
2023/06/19 06:39:36;;;;;;;3.88;3.67;;;;;;;47.00;17.75;95119.47;4994171;28;20409;-70
2023/06/19 06:42:03;;;;;;;3.83;3.50;;;;;;;47.78;17.22;95118.66;4994409;28;20912;-69
2023/06/19 06:44:30;;;;;;;3.40;3.30;;;;;;;48.04;16.60;95117.31;4995229;28;20737;-72
2023/06/19 06:46:56;;;;;;;3.47;3.38;;;;;;;48.37;16.60;95119.13;4994786;28;20214;-71
2023/06/19 06:49:24;;;;;;;3.70;3.50;;;;;;;48.21;16.53;95106.94;4996104;28;20210;-68
2023/06/19 06:51:51;;;;;;;4.20;3.13;;;;;;;48.30;16.66;95126.75;4994207;28;20328;-70
2023/06/19 06:54:18;;;;;;;3.90;3.67;;;;;;;48.50;16.14;95115.00;4994433;28;20306;-68
2023/06/19 06:56:47;;;;;;;3.88;3.40;;;;;;;49.45;15.23;95119.34;4994743;28;20289;-68
2023/06/19 06:59:15;;;;;;;4.05;3.65;;;;;;;49.27;15.45;95118.25;4993978;28;20214;-69
2023/06/19 07:01:42;;;;;;;4.07;3.78;;;;;;;48.65;15.71;95122.88;4993942;28;20207;-69
2023/06/19 07:04:09;;;;;;;3.67;3.38;;;;;;;48.66;15.50;95113.69;4995539;28;20218;-69
2023/06/19 07:06:37;;;;;;;3.80;3.60;;;;;;;48.96;15.84;95115.22;4994419;28;20338;-69
2023/06/19 07:09:03;;;;;;;3.70;3.50;;;;;;;49.57;15.33;95111.59;4992719;28;20793;-67
2023/06/19 07:11:30;;;;;;;3.70;3.40;;;;;;;49.82;15.15;95106.84;4992679;28;20239;-70
2023/06/19 07:13:57;;;;;;;4.22;3.83;;;;;;;49.94;15.16;95105.31;4994130;28;20302;-71
2023/06/19 07:16:23;;;;;;;3.60;3.40;;;;;;;49.66;15.29;95107.13;4994042;28;20289;-71
2023/06/19 07:18:50;;;;;;;3.80;3.60;;;;;;;49.48;15.02;95107.97;4994838;28;20323;-71
2023/06/19 07:21:17;;;;;;;3.53;3.33;;;;;;;49.68;14.95;95118.44;4995018;28;20285;-70
2023/06/19 07:23:47;;;;;;;3.78;3.58;;;;;;;49.11;15.09;95113.38;4994086;28;20202;-72
2023/06/19 07:26:15;;;;;;;4.50;3.45;;;;;;;48.73;14.96;95113.34;4993887;28;20210;-68
2023/06/19 07:28:41;;;;;;;4.15;3.85;;;;;;;49.12;15.21;95115.78;4994291;28;20238;-70
2023/06/19 07:31:08;;;;;;;3.28;3.08;;;;;;;50.16;14.39;95112.75;4993344;28;20784;-69
2023/06/19 07:33:35;;;;;;;3.80;3.60;;;;;;;50.16;13.88;95111.94;4994068;28;20293;-69
2023/06/19 07:36:02;;;;;;;3.78;3.63;;;;;;;50.26;14.02;95117.16;4997487;28;20215;-71
2023/06/19 07:38:29;;;;;;;4.07;3.97;;;;;;;49.69;14.52;95124.66;4997517;28;20194;-68
2023/06/19 07:40:57;;;;;;;6.28;2.83;;;;;;;50.05;13.70;95124.84;4998610;28;20636;-70
2023/06/19 07:43:24;;;;;;;3.58;3.38;;;;;;;50.17;13.85;95110.84;4996865;28;20237;-69
2023/06/19 07:45:51;;;;;;;5.03;3.22;;;;;;;49.78;14.67;95116.66;4997014;28;20207;-67
2023/06/19 07:48:17;;;;;;;17.75;16.25;;;;;;;49.43;14.40;95115.34;4991682;28;20272;-68
2023/06/19 07:50:45;;;;;;;8.57;7.97;;;;;;;48.93;15.02;95115.78;4996669;28;20313;-69
2023/06/19 07:53:12;;;;;;;9.60;6.75;;;;;;;48.65;15.24;95111.28;4994049;28;20345;-69
2023/06/19 07:55:39;;;;;;;7.55;7.15;;;;;;;49.02;15.07;95114.03;4997177;28;20608;-69
2023/06/19 07:58:07;;;;;;;8.70;8.05;;;;;;;49.33;14.80;95116.28;4996039;28;20211;-67
2023/06/19 08:00:34;;;;;;;8.50;7.72;;;;;;;49.40;14.72;95119.44;4998029;28;20207;-70
2023/06/19 08:03:00;;;;;;;6.85;6.45;;;;;;;49.64;14.28;95122.84;4996532;28;20226;-68
2023/06/19 08:05:27;;;;;;;5.57;5.28;;;;;;;50.05;14.15;95122.13;4996465;28;20206;-69
2023/06/19 08:07:54;;;;;;;6.20;5.80;;;;;;;49.86;14.05;95115.97;4998541;28;20203;-68
2023/06/19 08:10:20;;;;;;;6.43;5.82;;;;;;;49.64;14.42;95112.03;4997534;28;20310;-69
2023/06/19 08:12:47;;;;;;;8.88;6.20;;;;;;;49.69;14.64;95114.66;4996792;28;20234;-67
2023/06/19 08:15:15;;;;;;;8.02;6.00;;;;;;;49.88;14.73;95111.09;4996304;28;20705;-68
2023/06/19 08:17:42;;;;;;;7.55;5.13;;;;;;;50.51;14.03;95113.16;4998460;28;20210;-67
2023/06/19 08:20:10;;;;;;;8.65;5.70;;;;;;;50.13;14.07;95107.94;4998034;28;20294;-68
2023/06/19 08:22:37;;;;;;;4.10;3.67;;;;;;;49.62;13.95;95119.63;4996563;28;20230;-67
2023/06/19 08:25:04;;;;;;;4.70;4.40;;;;;;;49.26;13.91;95113.16;4994858;28;20353;-68
2023/06/19 08:27:31;;;;;;;6.88;4.13;;;;;;;48.07;14.81;95112.16;4996442;28;20295;-68
2023/06/19 08:29:58;;;;;;;5.32;3.45;;;;;;;48.34;14.60;95111.63;4994339;28;20294;-67
2023/06/19 08:32:26;;;;;;;6.35;4.00;;;;;;;48.27;14.79;95119.25;4994642;28;20329;-67
2023/06/19 08:34:53;;;;;;;4.50;3.90;;;;;;;48.90;14.45;95121.75;4994701;28;20210;-68
2023/06/19 08:37:20;;;;;;;3.75;3.63;;;;;;;48.39;14.34;95114.25;4995438;28;20230;-67
2023/06/19 08:39:46;;;;;;;3.47;3.17;;;;;;;48.47;14.80;95114.72;4995002;28;20207;-66
2023/06/19 08:42:13;;;;;;;3.58;3.30;;;;;;;48.17;14.84;95118.56;4995431;28;20276;-68
2023/06/19 08:44:40;;;;;;;3.28;3.10;;;;;;;48.53;14.47;95118.97;4994365;28;20301;-68
2023/06/19 08:47:07;;;;;;;3.80;3.50;;;;;;;48.19;14.46;95103.72;4996780;28;20194;-68
2023/06/19 08:49:36;;;;;;;3.00;2.80;;;;;;;47.91;14.27;95101.84;4996002;28;20203;-67
2023/06/19 08:52:03;;;;;;;4.38;3.45;;;;;;;47.53;14.78;95107.00;4997011;28;20660;-69
2023/06/19 08:54:30;;;;;;;3.78;3.15;;;;;;;48.00;14.82;95105.53;4996162;28;20217;-67
2023/06/19 08:57:00;;;;;;;3.72;3.53;;;;;;;47.65;14.78;95102.06;4995635;28;20210;-68
2023/06/19 08:59:28;;;;;;;4.07;3.63;;;;;;;47.46;14.97;95095.78;4995315;28;20293;-68
2023/06/19 09:01:56;;;;;;;3.78;3.47;;;;;;;47.72;14.29;95105.22;4996673;28;20309;-66
2023/06/19 09:04:26;;;;;;;3.55;3.35;;;;;;;46.68;14.79;95111.84;4995773;28;20294;-67
2023/06/19 09:06:56;;;;;;;3.25;3.05;;;;;;;46.37;15.12;95109.25;4995693;28;20289;-66
2023/06/19 09:09:24;;;;;;;3.55;3.25;;;;;;;46.58;14.71;95101.09;4996197;28;20843;-67
2023/06/19 09:12:01;;;;;;;4.15;3.50;;;;;;;46.95;15.26;95100.66;4996926;28;20289;-66
2023/06/19 09:14:35;;;;;;;4.72;3.72;;;;;;;47.40;14.58;95100.34;4995623;28;20247;-67
2023/06/19 09:17:03;;;;;;;3.70;3.40;;;;;;;46.64;15.16;95102.69;4995033;28;20207;-67
2023/06/19 09:19:31;;;;;;;3.47;3.28;;;;;;;46.45;14.98;95096.31;4997325;28;20280;-66
2023/06/19 09:22:04;;;;;;;3.58;3.15;;;;;;;44.81;16.54;95093.91;4996294;28;20701;-67
2023/06/19 09:24:35;;;;;;;3.47;3.38;;;;;;;43.68;16.87;95103.22;4996303;28;20203;-67
2023/06/19 09:27:07;;;;;;;3.88;3.63;;;;;;;42.17;18.36;95103.19;4994792;28;20214;-66
2023/06/19 09:29:38;;;;;;;3.55;3.35;;;;;;;40.75;19.18;95100.84;4994613;28;20211;-66
2023/06/19 09:32:15;;;;;;;4.10;3.90;;;;;;;40.15;19.96;95101.16;4996500;28;20211;-67
2023/06/19 09:34:42;;;;;;;4.60;4.38;;;;;;;39.68;20.42;95101.19;4995107;28;20203;-66
2023/06/19 09:37:11;;;;;;;3.95;3.63;;;;;;;39.04;21.39;95100.13;4994568;28;20302;-66
2023/06/19 09:39:39;;;;;;;3.40;3.10;;;;;;;38.48;22.15;95095.13;4995821;28;20286;-66
2023/06/19 09:42:08;;;;;;;3.70;3.40;;;;;;;37.59;22.99;95099.06;4995410;28;21040;-66
2023/06/19 09:44:41;;;;;;;3.78;3.58;;;;;;;36.27;24.42;95113.06;4995868;28;20210;-68
2023/06/19 09:47:18;;;;;;;4.03;3.80;;;;;;;35.16;25.84;95106.78;4995219;28;20218;-67
2023/06/19 09:49:51;;;;;;;3.80;3.50;;;;;;;34.03;27.73;95099.47;4995272;28;21276;-67
2023/06/19 09:52:22;;;;;;;3.80;3.50;;;;;;;32.94;28.92;95096.34;4995033;28;20237;-67
2023/06/19 09:54:51;;;;;;;4.47;4.07;;;;;;;31.67;30.97;95104.66;4994822;28;20264;-66
2023/06/19 09:57:18;;;;;;;5.82;4.18;;;;;;;30.89;32.28;95100.50;4994733;28;20203;-66
2023/06/19 09:59:49;;;;;;;3.85;3.47;;;;;;;29.93;34.06;95106.03;4995620;28;20207;-67
2023/06/19 10:02:16;;;;;;;5.00;3.85;;;;;;;29.48;34.68;95103.16;4994110;28;20214;-66
2023/06/19 10:04:46;;;;;;;4.10;3.80;;;;;;;29.09;36.11;95098.59;4995086;28;20235;-66
2023/06/19 10:07:22;;;;;;;3.80;3.50;;;;;;;28.55;37.34;95099.94;4995245;28;20724;-65
2023/06/19 10:10:00;;;;;;;3.60;3.40;;;;;;;28.20;38.13;95099.22;4995651;28;20210;-66
2023/06/19 10:12:37;;;;;;;3.85;3.53;;;;;;;27.89;38.99;95092.84;4994623;28;20345;-67
2023/06/19 10:15:16;;;;;;;3.90;3.60;;;;;;;27.80;38.93;95088.53;4995761;28;20207;-66
2023/06/19 10:17:45;;;;;;;4.80;3.75;;;;;;;27.73;39.28;95093.56;4994118;28;20357;-65
2023/06/19 10:20:31;;;;;;;3.75;3.55;;;;;;;27.45;38.63;95087.69;4994745;28;20203;-65
2023/06/19 10:23:01;;;;;;;4.03;3.83;;;;;;;27.29;38.88;95095.38;4995512;28;20360;-65
2023/06/19 10:25:32;;;;;;;5.43;4.30;;;;;;;27.34;39.70;95093.13;4994623;28;20218;-65
2023/06/19 10:28:00;;;;;;;5.07;4.05;;;;;;;27.35;39.20;95084.34;4994918;28;20325;-65
2023/06/19 10:30:27;;;;;;;4.25;3.95;;;;;;;27.33;39.08;95089.72;4993451;28;20207;-66
2023/06/19 10:32:54;;;;;;;4.55;4.25;;;;;;;27.14;39.34;95083.88;4995079;28;21854;-66
2023/06/19 10:35:23;;;;;;;5.13;3.83;;;;;;;27.10;39.39;95089.38;4994632;28;20544;-66
2023/06/19 10:37:50;;;;;;;4.18;3.88;;;;;;;27.17;39.12;95088.78;4994948;28;20297;-65
2023/06/19 10:40:18;;;;;;;3.83;3.20;;;;;;;27.08;39.48;95080.88;4993681;28;20784;-66
2023/06/19 10:42:45;;;;;;;4.53;4.25;;;;;;;27.24;41.17;95079.34;4994569;28;20222;-66
2023/06/19 10:45:15;;;;;;;4.65;4.03;;;;;;;27.41;39.92;95078.53;4994194;28;20202;-67
2023/06/19 10:47:42;;;;;;;4.10;3.65;;;;;;;27.61;41.22;95081.75;4994775;28;20567;-67
2023/06/19 10:50:13;;;;;;;3.83;3.50;;;;;;;27.64;40.00;95084.06;4994607;28;20290;-65
2023/06/19 10:52:44;;;;;;;4.47;4.18;;;;;;;27.55;41.29;95077.94;4994206;28;20833;-65
2023/06/19 10:55:12;;;;;;;3.90;3.65;;;;;;;27.32;41.45;95080.25;4995194;28;20304;-65
2023/06/19 10:57:41;;;;;;;4.28;4.03;;;;;;;26.94;42.66;95086.63;4994680;28;21136;-66
2023/06/19 11:00:12;;;;;;;4.65;3.80;;;;;;;26.69;42.77;95090.81;4994406;28;20289;-66
2023/06/19 11:02:42;;;;;;;4.07;3.78;;;;;;;26.66;43.35;95083.28;4993519;28;20210;-66
2023/06/19 11:05:10;;;;;;;3.72;3.53;;;;;;;27.00;42.89;95075.59;4995346;28;20203;-66
2023/06/19 11:07:37;;;;;;;4.15;3.85;;;;;;;27.41;42.08;95068.09;4993498;28;20703;-67
2023/06/19 11:10:05;;;;;;;4.35;4.05;;;;;;;27.63;41.65;95070.19;4993019;28;20213;-66
2023/06/19 11:12:33;;;;;;;4.35;3.97;;;;;;;27.89;40.87;95064.94;4998861;28;21355;-66
2023/06/19 11:15:04;;;;;;;5.30;3.88;;;;;;;28.24;41.15;95063.09;4998949;28;20217;-66
2023/06/19 11:17:31;;;;;;;4.50;4.15;;;;;;;28.36;39.61;95067.91;4998316;28;20242;-67
2023/06/19 11:19:59;;;;;;;4.05;3.85;;;;;;;28.49;41.21;95061.38;4996923;28;20672;-66
2023/06/19 11:22:38;;;;;;;5.53;5.05;;;;;;;28.16;40.91;95056.06;4998005;28;21928;-66
2023/06/19 11:25:06;;;;;;;4.28;4.03;;;;;;;28.15;41.34;95057.03;4998536;28;21170;-65
2023/06/19 11:27:32;;;;;;;5.45;4.07;;;;;;;28.05;41.80;95065.00;4997451;28;20277;-65
2023/06/19 11:30:00;;;;;;;4.55;4.25;;;;;;;27.74;41.98;95056.84;4995984;28;20256;-66
2023/06/19 11:32:34;;;;;;;4.53;4.22;;;;;;;27.82;42.86;95063.91;4997897;28;20211;-65
2023/06/19 11:35:07;;;;;;;4.22;3.92;;;;;;;27.87;42.13;95037.34;4997466;28;20199;-65
2023/06/19 11:37:34;;;;;;;6.05;3.92;;;;;;;28.04;42.17;95046.84;4997387;28;20204;-68